createdAt,value
2022-10-11T00:02:44.368Z,14.06
2022-10-11T00:05:59.377Z,14.04
2022-10-11T00:09:07.350Z,13.97
2022-10-11T00:12:22.355Z,13.93
2022-10-11T00:15:25.088Z,13.90
2022-10-11T00:18:39.403Z,13.85
2022-10-11T00:21:47.372Z,13.83
2022-10-11T00:24:56.004Z,13.82
2022-10-11T00:28:11.471Z,13.79
2022-10-11T00:31:19.943Z,13.74
2022-10-11T00:34:28.390Z,13.77
2022-10-11T00:37:38.715Z,13.69
2022-10-11T00:40:53.433Z,13.69
2022-10-11T00:44:11.528Z,13.62
2022-10-11T00:47:30.454Z,13.59
2022-10-11T00:50:41.399Z,13.58
2022-10-11T00:53:51.933Z,13.55
2022-10-11T00:57:06.406Z,13.50
2022-10-11T01:00:16.240Z,13.49
2022-10-11T01:03:34.380Z,13.47
2022-10-11T01:06:36.144Z,13.48
2022-10-11T01:09:51.390Z,13.49
2022-10-11T01:13:18.348Z,13.47
2022-10-11T01:16:46.433Z,13.51
2022-10-11T01:20:14.916Z,13.52
2022-10-11T01:23:53.729Z,13.54
2022-10-11T01:27:35.411Z,13.56
2022-10-11T01:30:45.393Z,13.55
2022-10-11T01:34:18.403Z,13.53
2022-10-11T01:37:41.608Z,13.50
2022-10-11T01:41:01.432Z,13.46
2022-10-11T01:44:11.422Z,13.43
2022-10-11T01:47:22.086Z,13.37
2022-10-11T01:50:43.459Z,13.35
2022-10-11T01:54:09.743Z,13.32
2022-10-11T01:57:41.411Z,13.32
2022-10-11T02:01:07.467Z,13.33
2022-10-11T02:04:32.463Z,13.33
2022-10-11T02:07:49.330Z,13.30
2022-10-11T02:11:16.432Z,13.26
2022-10-11T02:14:24.924Z,13.25
2022-10-11T02:17:45.420Z,13.20
2022-10-11T02:21:04.503Z,13.22
2022-10-11T02:24:28.399Z,13.17
2022-10-11T02:27:39.892Z,13.15
2022-10-11T02:30:57.436Z,13.14
2022-10-11T02:34:16.425Z,13.14
2022-10-11T02:37:56.476Z,13.14
2022-10-11T02:41:19.444Z,13.14
2022-10-11T02:44:41.449Z,13.16
2022-10-11T02:47:57.439Z,13.17
2022-10-11T02:51:06.538Z,13.25
2022-10-11T02:54:15.011Z,13.22
2022-10-11T02:57:23.462Z,13.17
2022-10-11T03:00:32.141Z,13.11
2022-10-11T03:03:40.436Z,12.95
2022-10-11T03:06:49.003Z,12.90
2022-10-11T03:10:03.507Z,12.89
2022-10-11T03:13:17.234Z,12.84
2022-10-11T03:16:32.434Z,12.80
2022-10-11T03:19:34.272Z,12.78
2022-10-11T03:22:49.517Z,12.76
2022-10-11T03:25:57.460Z,12.73
2022-10-11T03:29:19.452Z,12.72
2022-10-11T03:32:27.477Z,12.81
2022-10-11T03:35:36.062Z,12.85
2022-10-11T03:38:44.490Z,12.91
2022-10-11T03:41:53.063Z,12.99
2022-10-11T03:45:07.476Z,13.06
2022-10-11T03:48:16.499Z,13.07
2022-10-11T03:51:25.060Z,13.13
2022-10-11T03:54:33.597Z,13.10
2022-10-11T03:57:42.618Z,13.16
2022-10-11T04:00:50.528Z,13.20
2022-10-11T04:03:59.111Z,13.22
2022-10-11T04:07:07.464Z,13.19
2022-10-11T04:10:22.516Z,13.17
2022-10-11T04:13:24.223Z,13.17
2022-10-11T04:16:38.499Z,13.17
2022-10-11T04:19:40.245Z,13.21
2022-10-11T04:22:54.498Z,13.22
2022-10-11T04:26:02.745Z,13.23
2022-10-11T04:29:17.776Z,13.21
2022-10-11T04:32:30.547Z,13.20
2022-10-11T04:35:45.515Z,13.17
2022-10-11T04:38:47.224Z,13.18
2022-10-11T04:42:01.542Z,13.20
2022-10-11T04:45:09.507Z,13.20
2022-10-11T04:48:24.560Z,13.23
2022-10-11T04:51:26.324Z,13.26
2022-10-11T04:54:41.498Z,13.19
2022-10-11T04:57:43.217Z,13.27
2022-10-11T05:00:57.519Z,13.32
2022-10-11T05:03:59.233Z,13.37
2022-10-11T05:07:13.523Z,13.38
2022-10-11T05:10:15.320Z,13.35
2022-10-11T05:13:31.570Z,13.38
2022-10-11T05:16:40.221Z,13.40
2022-10-11T05:19:48.569Z,13.39
2022-10-11T05:23:03.530Z,13.39
2022-10-11T05:26:11.508Z,13.49
2022-10-11T05:29:33.511Z,13.41
2022-10-11T05:32:35.312Z,13.51
2022-10-11T05:35:49.582Z,13.47
2022-10-11T05:38:51.422Z,13.48
2022-10-11T05:42:09.761Z,13.49
2022-10-11T05:45:11.893Z,13.58
2022-10-11T05:48:27.600Z,13.67
2022-10-11T05:51:36.219Z,13.86
2022-10-11T05:54:44.601Z,14.28
2022-10-11T05:57:54.430Z,14.74
2022-10-11T06:01:09.629Z,14.89
2022-10-11T06:04:17.553Z,14.82
2022-10-11T06:07:26.400Z,15.15
2022-10-11T06:10:34.559Z,15.76
2022-10-11T06:13:49.574Z,15.94
2022-10-11T06:16:51.271Z,15.80
2022-10-11T06:20:05.584Z,16.02
2022-10-11T06:23:13.634Z,15.73
2022-10-11T06:26:28.603Z,16.12
2022-10-11T06:29:30.470Z,15.81
2022-10-11T06:32:45.660Z,15.53
2022-10-11T06:35:47.587Z,15.76
2022-10-11T06:39:02.584Z,16.14
2022-10-11T06:42:11.534Z,15.85
2022-10-11T06:45:19.675Z,16.10
2022-10-11T06:48:28.087Z,15.72
2022-10-11T06:51:42.595Z,16.28
2022-10-11T06:54:51.145Z,15.79
2022-10-11T06:57:59.654Z,15.97
2022-10-11T07:01:17.655Z,16.33
2022-10-11T07:04:19.536Z,16.15
2022-10-11T07:07:34.695Z,16.56
2022-10-11T07:10:43.496Z,16.67
2022-10-11T07:13:57.665Z,16.88
2022-10-11T07:17:06.233Z,16.45
2022-10-11T07:20:15.594Z,16.91
2022-10-11T07:23:24.863Z,17.22
2022-10-11T07:26:38.776Z,16.79
2022-10-11T07:29:53.988Z,16.41
2022-10-11T07:33:08.624Z,16.53
2022-10-11T07:36:12.383Z,16.76
2022-10-11T07:39:26.678Z,16.85
2022-10-11T07:42:35.484Z,16.74
2022-10-11T07:45:50.639Z,17.24
2022-10-11T07:48:59.308Z,17.39
2022-10-11T07:52:13.655Z,17.45
2022-10-11T07:55:22.251Z,17.31
2022-10-11T07:58:30.671Z,16.85
2022-10-11T08:01:39.372Z,16.64
2022-10-11T08:04:47.640Z,16.92
2022-10-11T08:07:56.659Z,17.07
2022-10-11T08:11:12.709Z,17.24
2022-10-11T08:14:14.581Z,17.18
2022-10-11T08:17:29.650Z,17.40
2022-10-11T08:20:40.189Z,17.08
2022-10-11T08:23:48.815Z,17.20
2022-10-11T08:27:10.668Z,17.28
2022-10-11T08:30:25.709Z,17.37
2022-10-11T08:33:41.691Z,17.63
2022-10-11T08:36:43.572Z,17.58
2022-10-11T08:39:58.807Z,17.62
2022-10-11T08:43:10.693Z,17.91
2022-10-11T08:46:32.706Z,17.95
2022-10-11T08:49:41.700Z,17.83
2022-10-11T08:53:14.701Z,17.94
2022-10-11T08:56:23.691Z,18.01
2022-10-11T08:59:51.731Z,17.86
2022-10-11T09:03:36.662Z,17.52
2022-10-11T09:07:08.847Z,17.61
2022-10-11T09:10:49.807Z,17.43
2022-10-11T09:14:27.735Z,17.37
2022-10-11T09:17:59.603Z,17.41
2022-10-11T09:21:34.683Z,17.70
2022-10-11T09:25:01.683Z,17.66
2022-10-11T09:29:00.914Z,18.20
2022-10-11T09:32:13.855Z,18.05
2022-10-11T09:35:29.731Z,18.28
2022-10-11T09:38:47.712Z,18.65
2022-10-11T09:42:12.811Z,18.57
2022-10-11T09:45:19.080Z,18.39
2022-10-11T09:48:47.745Z,18.30
2022-10-11T09:52:00.276Z,18.51
2022-10-11T09:55:09.747Z,18.77
2022-10-11T09:58:38.787Z,19.00
2022-10-11T10:01:46.786Z,19.27
2022-10-11T10:05:09.723Z,19.55
2022-10-11T10:08:27.249Z,19.15
2022-10-11T10:11:43.713Z,19.33
2022-10-11T10:15:11.768Z,19.41
2022-10-11T10:18:49.754Z,19.40
2022-10-11T10:21:58.462Z,19.46
2022-10-11T10:25:09.703Z,19.86
2022-10-11T10:28:33.741Z,20.07
2022-10-11T10:32:01.926Z,20.57
2022-10-11T10:35:42.731Z,20.43
2022-10-11T10:38:58.688Z,20.38
2022-10-11T10:42:14.168Z,20.21
2022-10-11T10:45:35.835Z,20.15
2022-10-11T10:49:48.764Z,20.30
2022-10-11T10:53:05.719Z,20.26
2022-10-11T10:56:37.788Z,20.65
2022-10-11T11:00:11.768Z,20.74
2022-10-11T11:03:35.815Z,20.88
2022-10-11T11:06:55.072Z,20.83
2022-10-11T11:10:11.827Z,20.60
2022-10-11T11:13:38.448Z,20.65
2022-10-11T11:16:56.821Z,20.84
2022-10-11T11:20:27.813Z,21.43
2022-10-11T11:23:52.672Z,22.74
2022-10-11T11:27:09.838Z,25.65
2022-10-11T11:30:50.783Z,25.31
2022-10-11T11:34:22.743Z,27.22
2022-10-11T11:37:38.788Z,27.80
2022-10-11T11:40:59.780Z,25.69
2022-10-11T11:44:13.784Z,25.91
2022-10-11T11:47:41.015Z,27.38
2022-10-11T11:50:57.787Z,29.69
2022-10-11T11:54:28.303Z,31.31
2022-10-11T11:58:06.992Z,30.93
2022-10-11T12:01:31.170Z,32.49
2022-10-11T12:04:50.842Z,32.22
2022-10-11T12:08:13.783Z,25.87
2022-10-11T12:11:35.435Z,24.25
2022-10-11T12:14:45.497Z,27.48
2022-10-11T12:18:18.876Z,29.11
2022-10-11T12:21:42.757Z,30.07
2022-10-11T12:24:55.702Z,31.01
2022-10-11T12:28:37.852Z,29.47
2022-10-11T12:31:50.279Z,27.56
2022-10-11T12:35:28.848Z,25.51
2022-10-11T12:38:44.843Z,24.37
2022-10-11T12:42:06.940Z,26.01
2022-10-11T12:45:36.800Z,24.83
2022-10-11T12:48:54.301Z,23.42
2022-10-11T12:52:28.876Z,22.39
2022-10-11T12:55:58.831Z,21.82
2022-10-11T12:59:03.083Z,21.43
2022-10-11T13:02:42.809Z,21.03
2022-10-11T13:05:53.932Z,20.82
2022-10-11T13:09:21.859Z,20.70
2022-10-11T13:12:24.212Z,20.48
2022-10-11T13:15:38.863Z,20.29
2022-10-11T13:19:00.877Z,20.35
2022-10-11T13:22:20.601Z,20.23
2022-10-11T13:25:31.827Z,20.26
2022-10-11T13:28:47.625Z,20.30
2022-10-11T13:31:55.886Z,20.31
2022-10-11T13:35:14.616Z,20.35
2022-10-11T13:38:36.843Z,20.44
2022-10-11T13:41:51.945Z,20.55
2022-10-11T13:45:00.881Z,20.49
2022-10-11T13:48:16.216Z,20.69
2022-10-11T13:51:36.947Z,20.78
2022-10-11T13:55:12.880Z,20.81
2022-10-11T13:58:28.335Z,20.62
2022-10-11T14:01:47.946Z,20.62
2022-10-11T14:04:50.631Z,20.63
2022-10-11T14:08:10.919Z,20.46
2022-10-11T14:11:20.874Z,20.27
2022-10-11T14:14:41.041Z,20.15
2022-10-11T14:17:55.940Z,20.18
2022-10-11T14:20:57.785Z,20.17
2022-10-11T14:24:14.948Z,20.07
2022-10-11T14:27:38.032Z,20.08
2022-10-11T14:30:52.886Z,19.99
2022-10-11T14:34:01.481Z,19.98
2022-10-11T14:37:10.864Z,19.96
2022-10-11T14:40:23.561Z,19.80
2022-10-11T14:43:31.875Z,19.68
2022-10-11T14:46:40.662Z,19.64
2022-10-11T14:49:50.949Z,19.52
2022-10-11T14:53:00.107Z,19.47
2022-10-11T14:56:08.169Z,19.42
2022-10-11T14:59:25.861Z,19.39
2022-10-11T15:02:40.936Z,19.35
2022-10-11T15:05:42.740Z,19.32
2022-10-11T15:08:57.988Z,19.30
2022-10-11T15:12:05.887Z,19.27
2022-10-11T15:15:21.912Z,19.19
2022-10-11T15:18:23.702Z,19.15
2022-10-11T15:21:39.917Z,19.08
2022-10-11T15:24:51.654Z,18.98
2022-10-11T15:28:00.954Z,18.94
2022-10-11T15:31:17.148Z,18.85
2022-10-11T15:34:24.950Z,18.81
2022-10-11T15:37:37.210Z,18.80
2022-10-11T15:40:46.002Z,18.79
2022-10-11T15:43:54.492Z,18.81
2022-10-11T15:47:02.919Z,18.83
2022-10-11T15:50:23.899Z,18.83
2022-10-11T15:53:33.919Z,18.82
2022-10-11T15:56:49.001Z,18.83
2022-10-11T15:59:57.701Z,18.85
2022-10-11T16:03:05.925Z,18.84
2022-10-11T16:06:14.707Z,18.83
2022-10-11T16:09:28.933Z,18.80
2022-10-11T16:12:37.482Z,18.78
2022-10-11T16:15:47.920Z,18.70
2022-10-11T16:18:56.447Z,18.67
2022-10-11T16:22:05.162Z,18.61
2022-10-11T16:25:20.110Z,18.55
2022-10-11T16:28:29.257Z,18.48
2022-10-11T16:31:43.961Z,18.38
2022-10-11T16:34:51.961Z,18.27
2022-10-11T16:38:07.953Z,18.22
2022-10-11T16:41:09.727Z,18.18
2022-10-11T16:44:26.980Z,18.14
2022-10-11T16:47:35.060Z,18.15
2022-10-11T16:50:43.572Z,18.17
2022-10-11T16:53:51.973Z,18.21
2022-10-11T16:57:10.989Z,18.22
2022-10-11T17:00:23.089Z,18.20
2022-10-11T17:03:31.536Z,18.16
2022-10-11T17:06:39.950Z,18.15
2022-10-11T17:09:49.621Z,18.13
2022-10-11T17:13:01.981Z,18.13
2022-10-11T17:16:24.958Z,18.17
2022-10-11T17:19:44.829Z,18.12
2022-10-11T17:22:53.949Z,18.08
2022-10-11T17:26:12.166Z,18.07
2022-10-11T17:29:27.275Z,18.04
2022-10-11T17:32:36.030Z,18.05
2022-10-11T17:35:44.568Z,17.98
2022-10-11T17:38:52.988Z,17.94
2022-10-11T17:42:08.010Z,17.86
2022-10-11T17:45:10.069Z,17.79
2022-10-11T17:48:24.990Z,17.72
2022-10-11T17:51:27.187Z,17.69
2022-10-11T17:54:42.188Z,17.68
2022-10-11T17:57:43.952Z,17.67
2022-10-11T18:00:59.113Z,17.65
2022-10-11T18:04:03.745Z,17.58
2022-10-11T18:07:18.014Z,17.54
2022-10-11T18:10:20.344Z,17.48
2022-10-11T18:13:34.998Z,17.45
2022-10-11T18:16:43.676Z,17.40
2022-10-11T18:19:57.983Z,17.33
2022-10-11T18:23:06.643Z,17.27
2022-10-11T18:26:29.390Z,17.22
2022-10-11T18:29:32.167Z,17.19
2022-10-11T18:32:46.999Z,17.16
2022-10-11T18:35:55.130Z,17.12
2022-10-11T18:39:07.345Z,17.09
2022-10-11T18:42:16.018Z,17.02
2022-10-11T18:45:24.556Z,16.93
2022-10-11T18:48:33.014Z,16.88
2022-10-11T18:51:49.035Z,16.83
2022-10-11T18:54:50.725Z,16.77
2022-10-11T18:58:05.044Z,16.77
2022-10-11T19:01:16.232Z,16.62
2022-10-11T19:04:31.020Z,16.84
2022-10-11T19:07:39.536Z,16.86
2022-10-11T19:10:54.040Z,16.86
2022-10-11T19:14:14.068Z,16.82
2022-10-11T19:17:22.871Z,16.77
2022-10-11T19:20:32.063Z,16.70
2022-10-11T19:23:43.967Z,16.66
2022-10-11T19:26:53.063Z,16.66
2022-10-11T19:30:08.668Z,16.64
2022-10-11T19:33:23.040Z,16.61
2022-10-11T19:36:36.455Z,16.58
2022-10-11T19:39:45.714Z,16.52
2022-10-11T19:42:54.044Z,16.48
2022-10-11T19:46:11.063Z,16.49
2022-10-11T19:49:28.052Z,16.50
2022-10-11T19:52:45.015Z,16.50
2022-10-11T19:55:53.059Z,16.52
2022-10-11T19:59:09.056Z,16.56
2022-10-11T20:02:24.103Z,16.55
2022-10-11T20:05:32.058Z,16.57
2022-10-11T20:08:52.766Z,16.60
2022-10-11T20:12:13.675Z,16.63
2022-10-11T20:15:28.051Z,16.62
2022-10-11T20:18:37.062Z,16.60
2022-10-11T20:21:45.993Z,16.47
2022-10-11T20:24:54.103Z,16.37
2022-10-11T20:28:16.188Z,16.33
2022-10-11T20:31:35.054Z,16.31
2022-10-11T20:34:50.081Z,16.23
2022-10-11T20:37:58.620Z,16.17
2022-10-11T20:41:15.127Z,16.14
2022-10-11T20:44:23.711Z,16.04
2022-10-11T20:47:32.487Z,15.92
2022-10-11T20:50:44.301Z,15.86
2022-10-11T20:53:53.123Z,15.83
2022-10-11T20:57:01.708Z,15.84
2022-10-11T21:00:17.120Z,15.84
2022-10-11T21:03:26.154Z,15.81
2022-10-11T21:06:41.091Z,15.75
2022-10-11T21:09:49.157Z,15.68
2022-10-11T21:12:58.111Z,15.66
2022-10-11T21:16:20.091Z,15.68
2022-10-11T21:19:28.712Z,15.73
2022-10-11T21:22:38.101Z,15.74
2022-10-11T21:25:53.119Z,15.71
2022-10-11T21:29:08.128Z,15.66
2022-10-11T21:32:16.115Z,15.64
2022-10-11T21:35:25.418Z,15.67
2022-10-11T21:38:34.116Z,15.66
2022-10-11T21:41:49.112Z,15.68
2022-10-11T21:44:57.144Z,15.63
2022-10-11T21:48:12.114Z,15.58
2022-10-11T21:51:20.251Z,15.48
2022-10-11T21:54:35.131Z,15.42
2022-10-11T21:57:36.943Z,15.36
2022-10-11T22:00:53.160Z,15.32
2022-10-11T22:04:08.144Z,15.34
2022-10-11T22:07:16.162Z,15.32
2022-10-11T22:10:24.639Z,15.29
2022-10-11T22:13:35.208Z,15.25
2022-10-11T22:16:50.132Z,15.21
2022-10-11T22:19:51.928Z,15.10
2022-10-11T22:23:06.140Z,15.05
2022-10-11T22:26:11.137Z,14.97
2022-10-11T22:29:27.678Z,14.91
2022-10-11T22:32:32.260Z,14.92
2022-10-11T22:35:47.136Z,14.92
2022-10-11T22:38:48.863Z,14.84
2022-10-11T22:42:03.150Z,14.78
2022-10-11T22:45:05.454Z,14.70
2022-10-11T22:48:20.142Z,14.67
2022-10-11T22:51:28.159Z,14.69
2022-10-11T22:54:43.235Z,14.61
2022-10-11T22:57:51.170Z,14.58
2022-10-11T23:01:16.185Z,14.33
2022-10-11T23:04:24.736Z,14.47
2022-10-11T23:07:39.435Z,14.45
2022-10-11T23:10:41.302Z,14.42
2022-10-11T23:13:56.150Z,14.39
2022-10-11T23:16:57.968Z,14.39
2022-10-11T23:20:15.163Z,14.36
2022-10-11T23:23:23.274Z,14.32
2022-10-11T23:26:31.663Z,14.32
2022-10-11T23:29:46.204Z,14.43
2022-10-11T23:32:54.827Z,14.50
2022-10-11T23:36:03.192Z,14.50
2022-10-11T23:39:11.712Z,14.50
2022-10-11T23:42:27.231Z,14.52
2022-10-11T23:45:35.676Z,14.53
2022-10-11T23:48:44.228Z,14.47
2022-10-11T23:51:59.223Z,14.46
2022-10-11T23:55:07.204Z,14.47
2022-10-11T23:58:22.179Z,14.49
